Time;durP1;ratioP1;P1;durP2;ratioP2;P2;SDS_P1;SDS_P2;PMS_P1;PMS_P2;Temp;Humidity;BMP_temperature;BMP_pressure;BME280_temperature;BME280_humidity;BME280_pressure;Samples;Min_cycle;Max_cycle;Signal;HPM_P1;HPM_P2
2024/02/19 00:01:55;;;;;;;13.70;3.00;;;;;;;8.62;100.00;102645.06;5151327;27;20037;-40
2024/02/19 00:04:20;;;;;;;17.27;3.78;;;;;;;8.60;100.00;102651.66;5151363;27;20076;-40
2024/02/19 00:06:45;;;;;;;19.67;3.93;;;;;;;8.62;100.00;102652.31;5142312;27;20023;-40
2024/02/19 00:09:13;;;;;;;14.47;3.50;;;;;;;8.62;100.00;102652.31;5137409;27;20034;-40
2024/02/19 00:11:38;;;;;;;12.70;2.90;;;;;;;8.61;100.00;102662.28;5137285;27;20714;-40
2024/02/19 00:14:04;;;;;;;13.00;2.73;;;;;;;8.55;100.00;102652.19;5137558;27;20059;-40
2024/02/19 00:16:29;;;;;;;10.95;3.00;;;;;;;8.57;100.00;102652.00;5137885;27;20073;-40
2024/02/19 00:18:54;;;;;;;16.77;3.20;;;;;;;8.62;100.00;102652.31;5137282;27;20409;-40
2024/02/19 00:21:20;;;;;;;15.30;3.43;;;;;;;8.62;100.00;102671.19;5137299;27;20635;-40
2024/02/19 00:23:45;;;;;;;11.53;2.70;;;;;;;8.63;100.00;102675.56;5137533;27;20019;-40
2024/02/19 00:26:11;;;;;;;15.70;3.47;;;;;;;8.58;100.00;102659.06;5137053;27;20072;-40
2024/02/19 00:28:36;;;;;;;11.40;2.60;;;;;;;8.51;100.00;102659.78;5137667;27;20366;-40
2024/02/19 00:31:01;;;;;;;11.43;3.40;;;;;;;8.64;100.00;102679.97;5137001;27;20038;-40
2024/02/19 00:33:27;;;;;;;14.47;2.80;;;;;;;8.64;100.00;102680.81;5137583;27;20124;-40
2024/02/19 00:35:53;;;;;;;12.90;2.73;;;;;;;8.63;100.00;102678.28;5137659;27;20023;-40
2024/02/19 00:38:19;;;;;;;11.70;2.95;;;;;;;8.64;100.00;102677.28;5136673;27;20253;-40
2024/02/19 00:40:45;;;;;;;9.50;2.53;;;;;;;8.64;100.00;102682.69;5136798;27;20107;-40
2024/02/19 00:43:11;;;;;;;16.40;3.30;;;;;;;8.64;100.00;102682.69;5137643;27;20465;-40
2024/02/19 00:45:36;;;;;;;17.35;3.50;;;;;;;8.59;100.00;102677.78;5136953;27;20110;-40
2024/02/19 00:48:02;;;;;;;13.30;3.00;;;;;;;8.64;100.00;102691.59;5136838;27;20487;-41
2024/02/19 00:50:28;;;;;;;12.45;2.38;;;;;;;8.59;100.00;102685.03;5137418;27;20027;-40
2024/02/19 00:52:53;;;;;;;13.67;3.87;;;;;;;8.65;100.00;102695.13;5136573;27;20023;-39
2024/02/19 00:55:21;;;;;;;13.63;3.47;;;;;;;8.59;100.00;102680.50;5136749;27;20459;-39
2024/02/19 00:57:47;;;;;;;17.88;4.20;;;;;;;8.63;100.00;102683.66;5136797;27;20031;-39
2024/02/19 01:00:13;;;;;;;;;;;;;;;8.70;100.00;102690.06;5137151;27;20027;-39
2024/02/19 01:02:38;;;;;;;13.32;2.80;;;;;;;8.63;100.00;102694.44;5136288;27;20431;-39
2024/02/19 01:05:04;;;;;;;11.00;2.70;;;;;;;8.55;100.00;102681.00;5137001;27;20049;-40
2024/02/19 01:07:30;;;;;;;11.13;2.85;;;;;;;8.54;100.00;102685.56;5136313;27;20055;-40
2024/02/19 01:09:56;;;;;;;16.25;3.75;;;;;;;8.61;100.00;102694.63;5136547;27;20478;-39
2024/02/19 01:12:21;;;;;;;13.43;2.92;;;;;;;8.60;100.00;102695.66;5136689;27;20019;-39
2024/02/19 01:14:47;;;;;;;13.73;3.28;;;;;;;8.58;100.00;102694.97;5136106;27;20023;-39
2024/02/19 01:17:12;;;;;;;17.90;3.83;;;;;;;8.50;100.00;102684.22;5135716;27;20059;-39
2024/02/19 01:19:41;;;;;;;14.60;2.90;;;;;;;8.60;100.00;102692.13;5135808;27;20252;-39
2024/02/19 01:22:06;;;;;;;15.20;2.97;;;;;;;8.58;100.00;102688.72;5136469;27;20102;-39
2024/02/19 01:24:32;;;;;;;14.05;3.58;;;;;;;8.52;100.00;102676.78;5135988;27;20137;-39
2024/02/19 01:26:58;;;;;;;17.08;3.45;;;;;;;8.58;100.00;102684.19;5136423;27;20052;-39
2024/02/19 01:29:24;;;;;;;;;;;;;;;8.64;100.00;102688.06;5136531;27;20023;-40
2024/02/19 01:31:50;;;;;;;14.65;2.95;;;;;;;8.56;100.00;102691.63;5135657;27;19907;-39
2024/02/19 01:34:16;;;;;;;11.70;2.97;;;;;;;8.49;100.00;102685.22;5135914;27;20177;-39
2024/02/19 01:36:42;;;;;;;;;;;;;;;8.62;100.00;102704.41;5136110;27;20023;-40
2024/02/19 01:39:09;;;;;;;17.27;3.95;;;;;;;8.57;100.00;102708.63;5135404;27;19907;-40
2024/02/19 01:41:34;;;;;;;11.63;3.15;;;;;;;8.56;100.00;102697.00;5135574;27;20033;-40
2024/02/19 01:43:59;;;;;;;16.57;3.37;;;;;;;8.49;100.00;102688.78;5135646;27;20064;-40
2024/02/19 01:46:26;;;;;;;17.53;3.73;;;;;;;8.55;100.00;102705.28;5135517;27;20063;-40
2024/02/19 01:48:52;;;;;;;11.10;2.75;;;;;;;8.46;100.00;102690.97;5135730;27;20261;-40
2024/02/19 01:51:17;;;;;;;16.53;3.10;;;;;;;8.52;100.00;102704.59;5135810;27;20503;-40
2024/02/19 01:53:44;;;;;;;15.52;3.00;;;;;;;8.45;100.00;102703.59;5135995;27;20370;-40
2024/02/19 01:56:09;;;;;;;13.90;3.25;;;;;;;8.42;100.00;102700.41;5135038;27;20059;-40
2024/02/19 01:58:36;;;;;;;13.65;2.80;;;;;;;8.43;100.00;102702.91;5135376;27;20079;-40
2024/02/19 02:01:03;;;;;;;14.80;3.05;;;;;;;8.46;100.00;102709.84;5134989;27;20106;-40
2024/02/19 02:03:30;;;;;;;12.93;3.92;;;;;;;8.47;100.00;102712.34;5136054;27;20019;-40
2024/02/19 02:05:55;;;;;;;16.52;3.90;;;;;;;8.48;100.00;102711.34;5134909;27;20023;-41
2024/02/19 02:08:21;;;;;;;17.53;3.77;;;;;;;8.48;100.00;102707.81;5135179;27;20115;-40
2024/02/19 02:10:46;;;;;;;12.73;2.90;;;;;;;8.46;100.00;102707.97;5135112;27;20265;-40
2024/02/19 02:13:11;;;;;;;13.77;3.67;;;;;;;8.46;100.00;102713.38;5135913;27;20027;-40
2024/02/19 02:15:37;;;;;;;8.80;3.17;;;;;;;8.43;100.00;102708.31;5135269;27;20024;-40
2024/02/19 02:18:02;;;;;;;15.60;3.73;;;;;;;8.38;100.00;102705.28;5135278;27;20106;-40
2024/02/19 02:20:27;;;;;;;16.58;3.95;;;;;;;8.42;100.00;102714.72;5135575;27;20249;-40
2024/02/19 02:22:54;;;;;;;11.33;2.63;;;;;;;8.41;100.00;102710.34;5134682;27;20027;-40
2024/02/19 02:25:21;;;;;;;;;;;;;;;8.49;100.00;102712.19;5135634;27;20032;-40
2024/02/19 02:27:46;;;;;;;15.20;3.58;;;;;;;8.41;100.00;102718.44;5134745;27;19925;-40
2024/02/19 02:30:12;;;;;;;18.13;3.80;;;;;;;8.41;100.00;102718.44;5134648;27;20019;-40
2024/02/19 02:32:37;;;;;;;13.68;2.90;;;;;;;8.38;100.00;102710.69;5135209;27;20102;-40
2024/02/19 02:35:03;;;;;;;13.60;2.80;;;;;;;8.34;100.00;102706.59;5135219;27;20038;-40
2024/02/19 02:37:30;;;;;;;17.80;3.60;;;;;;;8.36;100.00;102707.34;5134629;27;20026;-40
2024/02/19 02:39:55;;;;;;;13.75;3.22;;;;;;;8.36;100.00;102701.06;5134926;27;20023;-40
2024/02/19 02:42:21;;;;;;;14.23;3.40;;;;;;;8.36;100.00;102696.53;5134395;27;20050;-40
2024/02/19 02:44:46;;;;;;;17.45;3.50;;;;;;;8.35;100.00;102692.16;5134559;27;20027;-40
2024/02/19 02:47:12;;;;;;;11.47;3.17;;;;;;;8.32;100.00;102700.56;5134574;27;20031;-40
2024/02/19 02:49:37;;;;;;;18.47;5.43;;;;;;;8.33;100.00;102693.31;5134830;27;20735;-40
2024/02/19 02:52:02;;;;;;;19.07;4.17;;;;;;;8.34;100.00;102697.69;5135124;27;20031;-40
2024/02/19 02:54:28;;;;;;;21.73;5.57;;;;;;;8.24;100.00;102679.00;5134947;27;20043;-40
2024/02/19 02:56:53;;;;;;;17.43;4.80;;;;;;;8.20;100.00;102686.59;5134820;27;20265;-40
2024/02/19 02:59:19;;;;;;;19.23;4.40;;;;;;;8.26;100.00;102687.78;5134515;27;20479;-40
2024/02/19 03:01:44;;;;;;;18.70;4.70;;;;;;;8.25;100.00;102689.63;5134398;27;20034;-40
2024/02/19 03:04:09;;;;;;;20.70;4.53;;;;;;;8.26;100.00;102699.41;5134083;27;20027;-41
2024/02/19 03:06:35;;;;;;;15.40;3.63;;;;;;;8.17;100.00;102680.72;5134320;27;20056;-41
2024/02/19 03:09:00;;;;;;;14.87;3.77;;;;;;;8.21;100.00;102682.06;5134682;27;20297;-40
2024/02/19 03:11:26;;;;;;;18.35;4.35;;;;;;;8.20;100.00;102683.06;5134213;27;20157;-40
2024/02/19 03:13:51;;;;;;;18.80;4.63;;;;;;;8.17;100.00;102681.53;5134317;27;20356;-40
2024/02/19 03:16:17;;;;;;;14.27;3.53;;;;;;;8.22;100.00;102695.34;5134102;27;20027;-40
2024/02/19 03:18:45;;;;;;;17.40;3.97;;;;;;;8.22;100.00;102694.50;5134527;27;20019;-40
2024/02/19 03:21:12;;;;;;;16.02;4.15;;;;;;;8.22;100.00;102689.13;5134529;27;20034;-40
2024/02/19 03:23:39;;;;;;;18.45;4.15;;;;;;;8.22;100.00;102699.91;5134513;27;20102;-40
2024/02/19 03:26:04;;;;;;;19.10;4.35;;;;;;;8.21;100.00;102701.75;5134107;27;20031;-40
2024/02/19 03:28:30;;;;;;;12.55;3.72;;;;;;;8.24;100.00;102697.88;5134741;27;20436;-40
2024/02/19 03:30:55;;;;;;;18.57;5.13;;;;;;;8.21;100.00;102692.84;5133910;27;20390;-40
2024/02/19 03:33:20;;;;;;;14.25;3.90;;;;;;;8.21;100.00;102687.44;5134184;27;20364;-40
2024/02/19 03:35:46;;;;;;;14.60;3.50;;;;;;;8.20;100.00;102692.00;5133723;27;20027;-40
2024/02/19 03:38:12;;;;;;;18.60;3.90;;;;;;;8.21;100.00;102687.44;5134172;27;20260;-40
2024/02/19 03:40:37;;;;;;;14.00;3.55;;;;;;;8.19;100.00;102678.66;5134038;27;20054;-40
2024/02/19 03:43:03;;;;;;;14.33;3.23;;;;;;;8.24;100.00;102684.38;5138422;27;20511;-40
2024/02/19 03:45:28;;;;;;;17.88;3.78;;;;;;;8.21;100.00;102680.19;5138220;27;20109;-40
2024/02/19 03:47:54;;;;;;;12.27;3.00;;;;;;;8.21;100.00;102676.66;5137616;27;20023;-40
2024/02/19 03:50:20;;;;;;;14.02;3.13;;;;;;;8.21;100.00;102673.97;5137397;27;20092;-38
2024/02/19 03:52:46;;;;;;;12.68;3.45;;;;;;;8.19;100.00;102678.66;5137742;27;20034;-39
2024/02/19 03:55:11;;;;;;;19.55;3.20;;;;;;;8.22;100.00;102681.03;5137612;27;20054;-40
2024/02/19 03:57:36;;;;;;;11.30;2.53;;;;;;;8.24;100.00;102692.47;5138066;27;20061;-40
2024/02/19 04:00:05;;;;;;;10.17;2.43;;;;;;;8.25;100.00;102689.63;5137439;27;20057;-40
2024/02/19 04:02:30;;;;;;;11.90;2.60;;;;;;;8.26;100.00;102691.31;5137528;27;20292;-40
2024/02/19 04:04:55;;;;;;;15.82;3.20;;;;;;;8.26;100.00;102685.06;5138136;27;20051;-40
2024/02/19 04:07:21;;;;;;;14.47;2.73;;;;;;;8.26;100.00;102690.47;5137492;27;20023;-40
2024/02/19 04:09:46;;;;;;;10.85;2.63;;;;;;;8.22;100.00;102678.34;5137435;27;20275;-40
2024/02/19 04:12:12;;;;;;;12.47;2.70;;;;;;;8.31;100.00;102687.25;5137098;27;20031;-40
2024/02/19 04:14:40;;;;;;;12.90;3.80;;;;;;;8.24;100.00;102671.75;5137594;27;20067;-40
2024/02/19 04:17:06;;;;;;;10.00;2.58;;;;;;;8.29;100.00;102684.72;5137283;27;20027;-40
2024/02/19 04:19:31;;;;;;;11.80;2.38;;;;;;;8.25;100.00;102683.41;5137287;27;20513;-40
2024/02/19 04:21:57;;;;;;;7.93;2.17;;;;;;;8.31;100.00;102693.50;5137454;27;20115;-40
2024/02/19 04:24:22;;;;;;;11.73;2.80;;;;;;;8.31;100.00;102684.56;5136982;27;20027;-40
2024/02/19 04:26:48;;;;;;;12.47;2.37;;;;;;;8.31;100.00;102688.09;5137099;27;20024;-40
2024/02/19 04:29:13;;;;;;;12.13;3.20;;;;;;;8.31;100.00;102687.25;5137654;27;20387;-40
2024/02/19 04:31:40;;;;;;;16.50;3.00;;;;;;;8.30;100.00;102691.81;5137073;27;20128;-40
2024/02/19 04:34:06;;;;;;;12.13;2.80;;;;;;;8.23;100.00;102683.56;5137384;27;20416;-40
2024/02/19 04:36:32;;;;;;;14.15;3.05;;;;;;;8.30;100.00;102691.81;5137068;27;20023;-40
2024/02/19 04:38:57;;;;;;;15.38;3.22;;;;;;;8.30;100.00;102693.66;5136864;27;20057;-41
2024/02/19 04:41:23;;;;;;;12.32;2.72;;;;;;;8.30;100.00;102691.81;5136868;27;20027;-40
2024/02/19 04:43:48;;;;;;;8.00;3.00;;;;;;;8.30;100.00;102682.91;5137103;27;20047;-40
2024/02/19 04:46:14;;;;;;;12.20;2.80;;;;;;;8.19;100.00;102667.88;5137014;27;20487;-40
2024/02/19 04:48:39;;;;;;;11.75;2.78;;;;;;;8.28;100.00;102685.72;5137590;27;20332;-40
2024/02/19 04:51:05;;;;;;;14.75;2.97;;;;;;;8.26;100.00;102690.47;5136710;27;20413;-40
2024/02/19 04:53:31;;;;;;;14.55;3.33;;;;;;;8.26;100.00;102680.53;5136767;27;20030;-40
2024/02/19 04:55:56;;;;;;;12.90;2.60;;;;;;;8.24;100.00;102677.16;5136891;27;20066;-40
2024/02/19 04:58:21;;;;;;;11.83;2.50;;;;;;;8.27;100.00;102692.16;5135880;27;20462;-39
2024/02/19 05:00:47;;;;;;;11.75;3.70;;;;;;;8.25;100.00;102683.41;5136159;27;20364;-39
2024/02/19 05:03:13;;;;;;;12.33;2.43;;;;;;;8.22;100.00;102686.44;5137309;27;20033;-39
2024/02/19 05:05:38;;;;;;;10.65;2.53;;;;;;;8.26;100.00;102685.91;5136655;27;20066;-39
2024/02/19 05:08:04;;;;;;;11.33;2.47;;;;;;;8.19;100.00;102670.59;5136683;27;20424;-39
2024/02/19 05:10:30;;;;;;;12.02;2.58;;;;;;;8.27;100.00;102692.16;5135943;27;20394;-39
2024/02/19 05:12:55;;;;;;;11.27;2.63;;;;;;;8.30;100.00;102689.13;5135946;27;20084;-38
2024/02/19 05:15:21;;;;;;;12.00;2.88;;;;;;;8.30;100.00;102688.28;5136104;27;20023;-39
2024/02/19 05:17:46;;;;;;;8.97;2.33;;;;;;;8.31;100.00;102682.72;5136389;27;20420;-39
2024/02/19 05:20:11;;;;;;;13.57;3.30;;;;;;;8.32;100.00;102680.84;5136208;27;20249;-39
2024/02/19 05:22:37;;;;;;;8.10;2.53;;;;;;;8.32;100.00;102670.91;5135797;27;20474;-39
2024/02/19 05:25:02;;;;;;;13.13;3.10;;;;;;;8.34;100.00;102668.88;5136838;27;20035;-40
2024/02/19 05:27:28;;;;;;;12.40;2.42;;;;;;;8.34;100.00;102674.25;5136726;27;20316;-40
2024/02/19 05:29:53;;;;;;;12.50;2.97;;;;;;;8.33;100.00;102664.50;5135589;27;20462;-39
2024/02/19 05:32:19;;;;;;;11.25;2.55;;;;;;;8.36;100.00;102668.72;5135903;27;20029;-40
2024/02/19 05:34:44;;;;;;;11.07;2.80;;;;;;;8.39;100.00;102679.16;5135832;27;20428;-40
2024/02/19 05:37:10;;;;;;;12.10;2.83;;;;;;;8.41;100.00;102672.63;5135518;27;20356;-40
2024/02/19 05:39:35;;;;;;;9.43;2.47;;;;;;;8.44;100.00;102677.66;5135712;27;20519;-40
2024/02/19 05:42:00;;;;;;;10.40;2.33;;;;;;;8.44;100.00;102685.75;5135440;27;20098;-40
2024/02/19 05:44:26;;;;;;;9.90;3.08;;;;;;;8.44;100.00;102682.19;5135699;27;20080;-39
2024/02/19 05:46:51;;;;;;;12.80;2.70;;;;;;;8.46;100.00;102681.03;5135213;27;20023;-39
2024/02/19 05:49:16;;;;;;;7.88;2.05;;;;;;;8.45;100.00;102690.13;5135298;27;20106;-39
2024/02/19 05:51:42;;;;;;;13.20;2.93;;;;;;;8.47;100.00;102684.56;5135502;27;20106;-40
2024/02/19 05:54:07;;;;;;;9.15;2.28;;;;;;;8.47;100.00;102688.09;5135338;27;20088;-39
2024/02/19 05:56:33;;;;;;;12.47;3.13;;;;;;;8.47;100.00;102689.94;5136045;27;20063;-39
2024/02/19 05:58:59;;;;;;;10.23;2.15;;;;;;;8.46;100.00;102691.81;5136169;27;20019;-40
2024/02/19 06:01:25;;;;;;;10.10;2.72;;;;;;;8.47;100.00;102690.78;5135283;27;20023;-40
2024/02/19 06:17:34;;;;;;;12.00;2.67;;;;;;;8.47;100.00;102704.28;5051877;28;20048;-39
2024/02/19 06:20:00;;;;;;;10.97;2.87;;;;;;;8.46;100.00;102710.69;5105370;28;20031;-39
2024/02/19 06:22:25;;;;;;;10.63;2.93;;;;;;;8.47;100.00;102714.22;5113948;27;20043;-39
2024/02/19 06:24:51;;;;;;;14.45;3.00;;;;;;;8.46;100.00;102707.97;5114237;27;20077;-39
2024/02/19 06:27:16;;;;;;;11.52;2.60;;;;;;;8.47;100.00;102706.97;5114292;28;20032;-40
2024/02/19 06:29:41;;;;;;;12.02;2.80;;;;;;;8.46;100.00;102707.16;5114840;28;20035;-40
2024/02/19 06:32:07;;;;;;;11.82;2.97;;;;;;;8.41;100.00;102696.88;5114816;28;20027;-40
2024/02/19 06:34:34;;;;;;;12.43;2.43;;;;;;;8.44;100.00;102710.03;5115045;28;20036;-39
2024/02/19 06:36:59;;;;;;;10.02;3.03;;;;;;;8.39;100.00;102706.97;5114439;28;20352;-39
2024/02/19 06:39:25;;;;;;;11.70;2.70;;;;;;;8.42;100.00;102706.63;5114176;28;20034;-39
2024/02/19 06:41:50;;;;;;;12.23;2.60;;;;;;;8.43;100.00;102702.09;5114028;28;20034;-39
2024/02/19 06:44:15;;;;;;;14.53;2.33;;;;;;;8.36;100.00;102695.69;5114379;28;20055;-39
2024/02/19 06:46:41;;;;;;;12.00;2.87;;;;;;;8.42;100.00;102706.63;5114084;28;20020;-39
2024/02/19 06:49:06;;;;;;;12.03;2.87;;;;;;;8.35;100.00;102692.16;5114573;28;20262;-39
2024/02/19 06:51:31;;;;;;;13.77;2.80;;;;;;;8.34;100.00;102695.81;5114058;28;20076;-39
2024/02/19 06:53:57;;;;;;;11.90;2.80;;;;;;;8.40;100.00;102699.75;5114593;28;20459;-39
2024/02/19 06:56:22;;;;;;;12.57;3.13;;;;;;;8.39;100.00;102706.97;5114445;28;20044;-39
2024/02/19 06:58:47;;;;;;;8.90;2.83;;;;;;;8.36;100.00;102701.94;5114844;28;20072;-39
2024/02/19 07:01:16;;;;;;;11.27;2.50;;;;;;;8.33;100.00;102694.16;5113981;28;20035;-39
2024/02/19 07:03:42;;;;;;;12.35;3.10;;;;;;;8.38;100.00;102705.28;5114216;28;20253;-39
2024/02/19 07:06:07;;;;;;;;;;;;;;;8.46;100.00;102701.75;5114269;28;20039;-40
2024/02/19 07:08:32;;;;;;;10.52;2.83;;;;;;;8.40;100.00;102700.59;5113847;28;19912;-39
2024/02/19 07:10:58;;;;;;;10.27;2.50;;;;;;;8.36;100.00;102691.16;5113801;28;20039;-39
2024/02/19 07:13:23;;;;;;;13.47;3.10;;;;;;;8.41;100.00;102704.97;5114670;28;20020;-39
2024/02/19 07:15:48;;;;;;;12.50;3.90;;;;;;;8.41;100.00;102704.97;5114373;28;20027;-40
2024/02/19 07:18:14;;;;;;;12.40;3.27;;;;;;;8.37;100.00;102692.84;5117733;28;20085;-40
2024/02/19 07:20:39;;;;;;;8.73;2.70;;;;;;;8.44;100.00;102699.25;5117870;27;20031;-40
2024/02/19 07:23:05;;;;;;;11.60;2.63;;;;;;;8.43;100.00;102697.53;5117691;28;20311;-40
2024/02/19 07:25:31;;;;;;;10.93;3.75;;;;;;;8.43;100.00;102694.84;5117824;28;20280;-40
2024/02/19 07:27:57;;;;;;;10.70;3.77;;;;;;;8.46;100.00;102696.38;5117601;28;20102;-40
2024/02/19 07:30:22;;;;;;;15.18;4.20;;;;;;;8.47;100.00;102692.66;5117812;28;20360;-39
2024/02/19 07:32:48;;;;;;;17.05;3.95;;;;;;;8.47;100.00;102696.19;5117989;28;20024;-40
2024/02/19 07:35:13;;;;;;;13.53;3.90;;;;;;;8.49;100.00;102696.88;5117835;28;20081;-39
2024/02/19 07:37:38;;;;;;;11.38;3.50;;;;;;;8.51;100.00;102694.00;5118067;28;20102;-40
2024/02/19 07:40:06;;;;;;;11.33;3.97;;;;;;;8.54;100.00;102695.47;5118164;28;20031;-39
2024/02/19 07:42:31;;;;;;;12.73;4.57;;;;;;;8.55;100.00;102694.50;5117188;28;20027;-39
2024/02/19 07:44:56;;;;;;;14.30;5.33;;;;;;;8.54;100.00;102693.66;5117824;28;20083;-39
2024/02/19 07:47:22;;;;;;;13.53;4.27;;;;;;;8.58;100.00;102699.53;5117158;28;20110;-39
2024/02/19 07:49:47;;;;;;;11.30;4.43;;;;;;;8.62;100.00;102700.88;5117958;28;20023;-39
2024/02/19 07:52:12;;;;;;;11.57;4.80;;;;;;;8.56;100.00;102686.22;5117017;28;20277;-39
2024/02/19 07:54:38;;;;;;;15.30;5.23;;;;;;;8.63;100.00;102692.59;5117694;27;20047;-39
2024/02/19 07:57:03;;;;;;;14.90;4.93;;;;;;;8.61;100.00;102683.00;5117520;28;20659;-39
2024/02/19 07:59:29;;;;;;;13.68;5.10;;;;;;;8.68;100.00;102689.38;5117231;28;20028;-39
2024/02/19 08:01:54;;;;;;;12.17;5.07;;;;;;;8.70;100.00;102693.59;5117183;28;20565;-40
2024/02/19 08:04:21;;;;;;;14.60;4.97;;;;;;;8.73;100.00;102685.13;5117387;28;20293;-39
2024/02/19 08:06:47;;;;;;;14.57;5.50;;;;;;;8.77;100.00;102680.25;5117547;28;20409;-39
2024/02/19 08:09:12;;;;;;;15.38;5.60;;;;;;;8.76;100.00;102671.31;5117001;28;20024;-40
2024/02/19 08:11:38;;;;;;;13.90;6.03;;;;;;;8.72;100.00;102666.44;5116995;28;20031;-40
2024/02/19 08:14:03;;;;;;;13.63;5.37;;;;;;;8.86;100.00;102681.06;5116982;28;20257;-40
2024/02/19 08:16:28;;;;;;;11.37;5.17;;;;;;;8.97;100.00;102688.75;5117105;28;20080;-39
2024/02/19 08:18:54;;;;;;;10.67;5.77;;;;;;;8.99;100.00;102674.09;5117067;28;20030;-39
2024/02/19 08:21:19;;;;;;;12.03;6.00;;;;;;;9.11;100.00;102685.31;5117580;28;20273;-39
2024/02/19 08:23:44;;;;;;;15.30;5.87;;;;;;;9.09;100.00;102670.34;5117107;28;20107;-39
2024/02/19 08:26:10;;;;;;;14.27;6.50;;;;;;;9.21;100.00;102690.50;5117481;28;20131;-39
2024/02/19 08:28:35;;;;;;;16.20;5.90;;;;;;;9.25;100.00;102702.63;5115957;27;20028;-39
2024/02/19 08:31:00;;;;;;;17.80;6.53;;;;;;;9.29;100.00;102698.56;5117371;28;20068;-39
2024/02/19 08:33:26;;;;;;;17.65;6.35;;;;;;;9.32;100.00;102709.03;5116777;28;20288;-39
2024/02/19 08:35:51;;;;;;;14.40;5.80;;;;;;;9.32;100.00;102706.31;5116147;28;20066;-39
2024/02/19 08:38:16;;;;;;;13.73;5.83;;;;;;;9.31;100.00;102701.09;5116397;28;20035;-39
2024/02/19 08:40:42;;;;;;;16.73;7.20;;;;;;;9.25;100.00;102689.97;5116899;28;20620;-39
2024/02/19 08:43:11;;;;;;;13.83;6.20;;;;;;;9.29;100.00;102703.97;5116697;28;20104;-39
2024/02/19 08:45:39;;;;;;;15.75;6.47;;;;;;;9.30;100.00;102705.66;5115963;28;20072;-39
2024/02/19 08:48:05;;;;;;;14.18;7.30;;;;;;;9.27;100.00;102703.28;5117089;28;20023;-39
2024/02/19 08:50:31;;;;;;;18.50;8.00;;;;;;;9.23;100.00;102696.59;5116218;27;20031;-39
2024/02/19 08:52:57;;;;;;;17.30;7.25;;;;;;;9.32;100.00;102700.06;5116181;28;20033;-39
2024/02/19 08:55:22;;;;;;;15.13;6.80;;;;;;;9.34;100.00;102706.97;5115854;28;20051;-39
2024/02/19 08:57:47;;;;;;;16.53;7.43;;;;;;;9.39;100.00;102717.25;5116705;28;20258;-40
2024/02/19 09:00:13;;;;;;;16.23;7.13;;;;;;;9.34;100.00;102704.28;5116597;28;20035;-40
2024/02/19 09:02:41;;;;;;;18.08;8.18;;;;;;;9.43;100.00;102705.06;5115586;28;20089;-40
2024/02/19 09:05:09;;;;;;;13.73;8.07;;;;;;;9.36;100.00;102699.53;5116398;28;20165;-40
2024/02/19 09:07:35;;;;;;;14.38;7.70;;;;;;;9.42;100.00;102708.78;5115823;28;20023;-39
2024/02/19 09:10:00;;;;;;;11.43;7.38;;;;;;;9.51;100.00;102722.03;5116349;27;20103;-39
2024/02/19 09:12:26;;;;;;;15.50;7.28;;;;;;;9.52;100.00;102721.06;5116222;28;20077;-40
2024/02/19 09:14:52;;;;;;;21.23;7.65;;;;;;;9.53;100.00;102721.88;5115661;28;20077;-39
2024/02/19 09:17:17;;;;;;;18.88;9.10;;;;;;;9.48;100.00;102719.72;5116223;28;20417;-39
2024/02/19 09:19:43;;;;;;;13.83;7.83;;;;;;;9.50;100.00;102716.84;5115935;28;20038;-39
2024/02/19 09:22:08;;;;;;;19.43;9.03;;;;;;;9.50;100.00;102717.66;5115588;28;20319;-39
2024/02/19 09:24:33;;;;;;;16.70;8.90;;;;;;;9.50;100.00;102712.28;5116152;28;20072;-39
2024/02/19 09:27:00;;;;;;;18.58;9.75;;;;;;;9.47;100.00;102707.25;5115497;28;20383;-39
2024/02/19 09:29:25;;;;;;;19.50;10.05;;;;;;;9.55;100.00;102720.69;5116018;28;20450;-39
2024/02/19 09:31:51;;;;;;;17.70;10.27;;;;;;;9.56;100.00;102716.13;5115411;28;20028;-40
2024/02/19 09:34:17;;;;;;;20.35;11.07;;;;;;;9.43;100.00;102703.22;5115241;28;20794;-40
2024/02/19 09:36:43;;;;;;;;;;;;;;;9.66;100.00;102711.34;5115687;28;20118;-40
2024/02/19 09:39:10;;;;;;;18.83;10.27;;;;;;;9.63;100.00;102713.56;5114173;28;20012;-40
2024/02/19 09:41:35;;;;;;;22.60;11.63;;;;;;;9.64;100.00;102715.22;5115394;28;20050;-40
2024/02/19 09:44:01;;;;;;;19.42;11.05;;;;;;;9.68;100.00;102705.75;5115433;28;20460;-40
2024/02/19 09:46:26;;;;;;;18.35;12.05;;;;;;;9.69;100.00;102712.84;5114749;28;20038;-40
2024/02/19 09:48:54;;;;;;;20.50;11.55;;;;;;;9.71;100.00;102710.78;5115054;28;20031;-40
2024/02/19 09:51:23;;;;;;;20.10;12.05;;;;;;;9.68;100.00;102697.66;5115731;28;20027;-40
2024/02/19 09:53:51;;;;;;;25.20;11.35;;;;;;;9.76;100.00;102717.34;5114925;28;20031;-40
2024/02/19 09:56:18;;;;;;;21.50;12.20;;;;;;;9.77;100.00;102710.09;5115277;28;20490;-40
2024/02/19 09:58:46;;;;;;;21.38;10.68;;;;;;;9.76;100.00;102708.38;5115109;28;20023;-40
2024/02/19 10:01:12;;;;;;;19.73;10.75;;;;;;;9.75;100.00;102704.00;5114479;28;20397;-40
2024/02/19 10:03:37;;;;;;;17.88;10.00;;;;;;;9.74;100.00;102713.13;5114479;28;20034;-40
2024/02/19 10:06:03;;;;;;;19.40;9.07;;;;;;;9.72;100.00;102713.31;5114690;28;20038;-40
2024/02/19 10:08:29;;;;;;;14.65;8.50;;;;;;;9.66;100.00;102710.47;5114640;28;20257;-40
2024/02/19 10:11:00;;;;;;;17.15;8.95;;;;;;;9.70;100.00;102711.81;5114959;28;20039;-40
2024/02/19 10:13:26;;;;;;;21.25;9.68;;;;;;;9.73;100.00;102715.00;5115132;28;20383;-40
2024/02/19 10:15:51;;;;;;;15.20;9.00;;;;;;;9.76;100.00;102714.66;5114441;28;20371;-40
2024/02/19 10:18:19;;;;;;;19.02;9.95;;;;;;;9.78;100.00;102712.59;5114303;28;20027;-40
2024/02/19 10:20:46;;;;;;;13.43;8.32;;;;;;;9.68;100.00;102703.06;5113198;28;20487;-40
2024/02/19 10:23:13;;;;;;;14.20;9.07;;;;;;;9.76;100.00;102711.06;5114763;28;20031;-40
2024/02/19 10:25:38;;;;;;;15.63;8.70;;;;;;;9.69;100.00;102696.63;5114881;28;20077;-40
2024/02/19 10:28:05;;;;;;;16.53;8.87;;;;;;;9.72;100.00;102702.50;5115300;28;20444;-40
2024/02/19 10:30:30;;;;;;;13.25;7.75;;;;;;;9.66;100.00;102678.06;5114796;28;20035;-40
2024/02/19 10:32:56;;;;;;;18.70;8.50;;;;;;;9.78;100.00;102709.06;5113967;28;20028;-40
2024/02/19 10:35:23;;;;;;;13.53;8.13;;;;;;;9.67;100.00;102677.06;5114548;28;20050;-40
2024/02/19 10:37:48;;;;;;;15.95;8.73;;;;;;;9.82;100.00;102696.88;5114160;28;20118;-40
2024/02/19 10:40:14;;;;;;;18.57;8.60;;;;;;;9.87;100.00;102697.16;5113967;28;20070;-40
2024/02/19 10:42:40;;;;;;;14.52;8.50;;;;;;;9.89;100.00;102695.09;5114127;28;20291;-40
2024/02/19 10:45:08;;;;;;;12.63;7.43;;;;;;;9.86;100.00;102683.81;5114478;28;20047;-40
2024/02/19 10:47:34;;;;;;;12.40;7.38;;;;;;;9.94;100.00;102687.28;5114076;28;20032;-40
2024/02/19 10:49:59;;;;;;;16.77;8.45;;;;;;;9.95;100.00;102686.25;5114269;28;20020;-40
2024/02/19 10:52:25;;;;;;;13.57;8.10;;;;;;;9.92;100.00;102665.03;5114010;28;20043;-40
2024/02/19 10:54:56;;;;;;;21.08;8.60;;;;;;;9.99;100.00;102674.06;5114027;28;20091;-40
2024/02/19 10:57:21;;;;;;;13.25;6.95;;;;;;;10.02;100.00;102672.88;5113660;28;20540;-39
2024/02/19 10:59:46;;;;;;;13.47;7.70;;;;;;;10.03;100.00;102663.75;5113891;28;20024;-39
2024/02/19 11:02:19;;;;;;;13.40;7.22;;;;;;;10.12;100.00;102667.22;5113658;28;20115;-39
2024/02/19 11:04:50;;;;;;;14.00;7.00;;;;;;;10.12;100.00;102656.41;5114219;28;20159;-39
2024/02/19 11:07:16;;;;;;;14.57;6.93;;;;;;;10.13;100.00;102663.50;5114181;28;20032;-40
2024/02/19 11:09:41;;;;;;;13.45;7.03;;;;;;;10.15;100.00;102659.59;5113891;28;20024;-40
2024/02/19 11:12:13;;;;;;;15.38;6.85;;;;;;;10.17;100.00;102651.28;5114117;28;20032;-39
2024/02/19 11:14:38;;;;;;;13.00;7.32;;;;;;;10.18;100.00;102644.84;5114037;28;20024;-39
2024/02/19 11:17:04;;;;;;;13.10;6.90;;;;;;;10.16;100.00;102642.34;5113847;28;20451;-40
2024/02/19 11:19:39;;;;;;;12.38;6.20;;;;;;;10.24;100.00;102650.38;5114359;28;20101;-40
2024/02/19 11:22:08;;;;;;;13.65;6.20;;;;;;;10.25;100.00;102652.09;5114313;28;20031;-40
2024/02/19 11:24:34;;;;;;;11.75;5.82;;;;;;;10.26;100.00;102640.25;5114320;28;20413;-39
2024/02/19 11:26:59;;;;;;;13.48;6.63;;;;;;;10.18;100.00;102634.03;5113922;28;20031;-40